createdAt,value
2022-08-02T00:01:11.453Z,75.40
2022-08-02T00:03:39.582Z,75.30
2022-08-02T00:06:16.870Z,75.30
2022-08-02T00:08:44.954Z,75.30
2022-08-02T00:11:14.373Z,75.30
2022-08-02T00:13:42.469Z,75.30
2022-08-02T00:16:19.063Z,75.30
2022-08-02T00:18:50.227Z,75.30
2022-08-02T00:21:18.295Z,75.20
2022-08-02T00:24:27.739Z,75.20
2022-08-02T00:26:46.397Z,75.10
2022-08-02T00:29:17.563Z,75.20
2022-08-02T00:31:45.710Z,75.10
2022-08-02T00:34:29.823Z,75.10
2022-08-02T00:36:59.955Z,75.10
2022-08-02T00:39:34.734Z,75.00
2022-08-02T00:42:05.401Z,75.00
2022-08-02T00:44:41.946Z,74.90
2022-08-02T00:47:10.016Z,74.90
2022-08-02T00:49:41.093Z,74.90
2022-08-02T00:52:09.499Z,74.80
2022-08-02T00:54:40.117Z,74.80
2022-08-02T00:57:09.601Z,74.80
2022-08-02T00:59:51.539Z,74.80
2022-08-02T01:02:20.208Z,74.70
2022-08-02T01:04:53.533Z,74.70
2022-08-02T01:07:23.726Z,74.70
2022-08-02T01:09:52.292Z,74.70
2022-08-02T01:12:21.882Z,74.70
2022-08-02T01:14:54.811Z,74.60
2022-08-02T01:17:31.377Z,74.60
2022-08-02T01:20:04.441Z,74.60
2022-08-02T01:23:05.072Z,74.50
2022-08-02T01:25:51.767Z,74.60
2022-08-02T01:28:34.585Z,74.50
2022-08-02T01:31:04.008Z,74.50
2022-08-02T01:33:46.056Z,74.40
2022-08-02T01:36:20.953Z,74.40
2022-08-02T01:38:50.558Z,74.40
2022-08-02T01:41:20.507Z,74.40
2022-08-02T01:43:52.865Z,74.40
2022-08-02T01:46:27.984Z,74.40
2022-08-02T01:48:59.339Z,74.30
2022-08-02T01:54:24.303Z,74.30
2022-08-02T01:56:54.993Z,74.30
2022-08-02T01:59:40.212Z,74.20
2022-08-02T02:02:09.939Z,74.20
2022-08-02T02:04:38.532Z,74.30
2022-08-02T02:07:06.574Z,74.20
2022-08-02T02:09:37.336Z,74.20
2022-08-02T02:12:19.085Z,74.10
2022-08-02T02:14:49.210Z,74.20
2022-08-02T02:17:57.086Z,74.10
2022-08-02T02:20:10.823Z,74.20
2022-08-02T02:22:58.031Z,74.10
2022-08-02T02:25:35.767Z,74.10
2022-08-02T02:28:06.732Z,74.00
2022-08-02T02:30:36.170Z,74.10
2022-08-02T02:33:04.529Z,74.10
2022-08-02T02:35:36.877Z,74.10
2022-08-02T02:38:17.185Z,74.10
2022-08-02T02:40:45.470Z,74.10
2022-08-02T02:43:13.560Z,74.10
2022-08-02T02:45:59.038Z,74.00
2022-08-02T02:48:29.923Z,74.00
2022-08-02T02:50:57.982Z,74.00
2022-08-02T02:53:26.283Z,74.10
2022-08-02T02:56:02.480Z,74.40
2022-08-02T02:58:37.086Z,74.20
2022-08-02T03:01:53.211Z,74.20
2022-08-02T03:04:21.646Z,74.10
2022-08-02T03:06:52.909Z,74.10
2022-08-02T03:09:39.795Z,74.10
2022-08-02T03:12:09.494Z,74.10
2022-08-02T03:14:41.470Z,74.00
2022-08-02T03:17:10.932Z,74.20
2022-08-02T03:19:38.990Z,74.20
2022-08-02T03:22:11.684Z,74.20
2022-08-02T03:24:39.935Z,74.10
2022-08-02T03:27:10.257Z,74.20
2022-08-02T03:29:44.138Z,74.10
2022-08-02T03:32:19.605Z,74.00
2022-08-02T03:34:50.702Z,74.10
2022-08-02T03:37:18.770Z,74.10
2022-08-02T03:39:52.789Z,74.20
2022-08-02T03:42:24.049Z,74.30
2022-08-02T03:45:02.622Z,74.00
2022-08-02T03:47:34.505Z,74.20
2022-08-02T03:50:04.880Z,74.10
2022-08-02T03:52:33.445Z,74.10
2022-08-02T03:55:03.718Z,74.10
2022-08-02T03:57:34.827Z,74.30
2022-08-02T04:00:03.009Z,74.00
2022-08-02T04:02:38.697Z,74.30
2022-08-02T04:05:07.457Z,74.20
2022-08-02T04:08:33.472Z,74.20
2022-08-02T04:10:31.827Z,74.20
2022-08-02T04:12:59.877Z,74.00
2022-08-02T04:15:28.020Z,74.10
2022-08-02T04:17:58.147Z,74.20
2022-08-02T04:20:28.748Z,74.20
2022-08-02T04:23:00.048Z,74.20
2022-08-02T04:25:35.470Z,74.20
2022-08-02T04:28:16.621Z,74.30
2022-08-02T04:30:51.747Z,74.10
2022-08-02T04:33:21.175Z,74.20
2022-08-02T04:35:49.263Z,74.20
2022-08-02T04:38:17.479Z,74.20
2022-08-02T04:40:52.557Z,74.10
2022-08-02T04:43:21.007Z,74.40
2022-08-02T04:45:49.997Z,74.30
2022-08-02T04:48:22.578Z,74.30
2022-08-02T04:50:53.337Z,74.30
2022-08-02T04:53:24.485Z,74.30
2022-08-02T04:55:55.558Z,74.30
2022-08-02T04:58:40.035Z,74.20
2022-08-02T05:01:08.760Z,74.30
2022-08-02T05:03:38.274Z,74.20
2022-08-02T05:06:18.742Z,74.20
2022-08-02T05:08:47.208Z,74.30
2022-08-02T05:11:21.210Z,74.10
2022-08-02T05:13:57.568Z,74.20
2022-08-02T05:16:36.167Z,74.40
2022-08-02T05:19:05.596Z,74.20
2022-08-02T05:21:48.490Z,74.20
2022-08-02T05:24:29.680Z,74.20
2022-08-02T05:27:17.049Z,74.40
2022-08-02T05:29:57.048Z,74.20
2022-08-02T05:32:47.881Z,74.10
2022-08-02T05:35:18.593Z,74.20
2022-08-02T05:37:55.579Z,74.40
2022-08-02T05:40:26.850Z,74.30
2022-08-02T05:42:54.946Z,74.40
2022-08-02T05:45:36.926Z,74.20
2022-08-02T05:48:05.577Z,74.30
2022-08-02T05:50:35.246Z,74.10
2022-08-02T05:53:05.197Z,74.10
2022-08-02T05:55:37.765Z,74.00
2022-08-02T05:58:07.989Z,74.00
2022-08-02T06:00:36.579Z,74.10
2022-08-02T06:03:21.729Z,74.10
2022-08-02T06:06:00.031Z,74.00
2022-08-02T06:08:32.706Z,74.00
2022-08-02T06:11:02.451Z,74.10
2022-08-02T06:13:31.018Z,74.20
2022-08-02T06:15:59.656Z,74.20
2022-08-02T06:18:42.150Z,74.30
2022-08-02T06:22:34.143Z,74.30
2022-08-02T06:24:02.016Z,74.40
2022-08-02T06:26:30.126Z,74.50
2022-08-02T06:28:59.209Z,74.50
2022-08-02T06:31:27.340Z,74.50
2022-08-02T06:33:55.446Z,74.50
2022-08-02T06:36:49.355Z,74.30
2022-08-02T06:39:20.984Z,74.30
2022-08-02T06:41:49.963Z,74.10
2022-08-02T06:44:51.923Z,74.10
2022-08-02T06:47:23.817Z,74.10
2022-08-02T06:49:55.058Z,74.20
2022-08-02T06:52:28.734Z,74.20
2022-08-02T06:54:58.366Z,74.20
2022-08-02T06:57:27.027Z,74.40
2022-08-02T07:00:11.310Z,74.00
2022-08-02T07:02:47.157Z,74.50
2022-08-02T07:05:15.275Z,74.20
2022-08-02T07:07:47.981Z,74.40
2022-08-02T07:10:22.085Z,74.20
2022-08-02T07:12:53.198Z,74.30
2022-08-02T07:15:24.491Z,74.00
2022-08-02T07:17:52.623Z,74.20
2022-08-02T07:20:20.746Z,74.10
2022-08-02T07:22:50.266Z,74.10
2022-08-02T07:25:24.168Z,74.20
2022-08-02T07:27:55.032Z,74.10
2022-08-02T07:30:32.836Z,74.10
2022-08-02T07:33:37.795Z,74.00
2022-08-02T07:36:05.354Z,74.20
2022-08-02T07:38:35.326Z,74.10
2022-08-02T07:41:08.776Z,74.20
2022-08-02T07:43:36.888Z,74.10
2022-08-02T07:46:07.761Z,74.00
2022-08-02T07:48:35.858Z,74.00
2022-08-02T07:51:06.942Z,74.00
2022-08-02T07:53:50.683Z,74.00
2022-08-02T07:56:23.288Z,73.90
2022-08-02T07:58:54.463Z,73.90
2022-08-02T08:01:22.648Z,73.90
2022-08-02T08:03:50.767Z,73.80
2022-08-02T08:06:18.927Z,74.00
2022-08-02T08:08:58.204Z,74.00
2022-08-02T08:11:26.353Z,74.10
2022-08-02T08:13:54.486Z,74.00
2022-08-02T08:16:22.645Z,74.00
2022-08-02T08:18:53.611Z,73.90
2022-08-02T08:21:21.726Z,73.80
2022-08-02T08:23:50.431Z,73.70
2022-08-02T08:26:20.014Z,73.70
2022-08-02T08:28:48.096Z,73.70
2022-08-02T08:31:16.197Z,73.70
2022-08-02T08:33:44.274Z,73.70
2022-08-02T08:36:16.660Z,73.70
2022-08-02T08:38:48.080Z,73.70
2022-08-02T08:41:17.464Z,73.70
2022-08-02T08:43:52.865Z,73.70
2022-08-02T08:46:43.946Z,73.70
2022-08-02T08:49:27.049Z,73.70
2022-08-02T08:51:56.343Z,73.60
2022-08-02T08:54:26.162Z,73.70
2022-08-02T08:56:54.484Z,73.70
2022-08-02T08:59:23.987Z,73.70
2022-08-02T09:01:52.359Z,73.60
2022-08-02T09:04:20.702Z,73.60
2022-08-02T09:06:48.801Z,73.60
2022-08-02T09:09:16.873Z,73.60
2022-08-02T09:11:48.162Z,73.70
2022-08-02T09:14:29.387Z,73.60
2022-08-02T09:17:07.866Z,73.60
2022-08-02T09:19:37.067Z,73.70
2022-08-02T09:22:06.684Z,73.60
2022-08-02T09:24:43.194Z,73.70
2022-08-02T09:27:15.477Z,73.70
2022-08-02T09:30:14.213Z,73.70
2022-08-02T09:32:45.600Z,73.60
2022-08-02T09:35:16.443Z,73.60
2022-08-02T09:37:48.396Z,73.60
2022-08-02T09:40:16.869Z,73.60
2022-08-02T09:42:59.437Z,73.60
2022-08-02T09:45:34.507Z,73.60
2022-08-02T09:48:06.055Z,73.60
2022-08-02T09:50:41.100Z,73.60
2022-08-02T09:53:13.004Z,73.60
2022-08-02T09:56:02.650Z,73.60
2022-08-02T09:58:34.411Z,73.70
2022-08-02T10:01:11.430Z,73.60
2022-08-02T10:03:58.440Z,73.70
2022-08-02T10:06:35.329Z,73.60
2022-08-02T10:09:06.520Z,73.60
2022-08-02T10:11:48.476Z,73.70
2022-08-02T10:14:20.698Z,73.70
2022-08-02T10:17:03.893Z,73.70
2022-08-02T10:20:00.623Z,73.60
2022-08-02T10:22:23.736Z,73.60
2022-08-02T10:24:52.312Z,73.60
2022-08-02T10:27:21.411Z,73.60
2022-08-02T10:29:55.967Z,73.60
2022-08-02T10:32:31.687Z,73.60
2022-08-02T10:35:19.892Z,73.60
2022-08-02T10:37:55.062Z,73.60
2022-08-02T10:40:26.908Z,73.60
2022-08-02T10:42:55.671Z,73.70
2022-08-02T10:45:25.115Z,73.80
2022-08-02T10:48:00.721Z,73.60
2022-08-02T10:51:03.681Z,73.60
2022-08-02T10:53:32.052Z,73.60
2022-08-02T10:56:01.213Z,73.60
2022-08-02T10:58:39.399Z,73.60
2022-08-02T11:01:38.871Z,73.60
2022-08-02T11:04:24.992Z,73.60
2022-08-02T11:07:15.644Z,73.50
2022-08-02T11:09:43.758Z,73.70
2022-08-02T11:12:13.631Z,73.60
2022-08-02T11:14:44.622Z,73.60
2022-08-02T11:17:16.379Z,73.70
2022-08-02T11:20:17.616Z,73.70
2022-08-02T11:22:46.905Z,73.70
2022-08-02T11:26:00.854Z,73.60
2022-08-02T11:28:24.964Z,73.70
2022-08-02T11:31:05.520Z,73.60
2022-08-02T11:33:36.112Z,73.60
2022-08-02T11:36:05.911Z,73.60
2022-08-02T11:38:39.978Z,73.60
2022-08-02T11:41:11.253Z,73.60
2022-08-02T11:43:40.028Z,73.70
2022-08-02T11:46:19.830Z,73.70
2022-08-02T11:48:52.585Z,73.60
2022-08-02T11:51:23.493Z,73.60
2022-08-02T11:53:52.702Z,73.60
2022-08-02T11:56:26.928Z,73.70
2022-08-02T11:59:05.720Z,73.70
2022-08-02T12:01:46.284Z,73.70
2022-08-02T12:04:22.896Z,73.70
2022-08-02T12:06:59.474Z,73.80
2022-08-02T12:09:28.051Z,73.80
2022-08-02T12:11:56.934Z,73.70
2022-08-02T12:14:25.216Z,73.70
2022-08-02T12:17:10.644Z,73.80
2022-08-02T12:19:40.250Z,73.80
2022-08-02T12:22:16.744Z,73.90
2022-08-02T12:24:46.589Z,73.80
2022-08-02T12:27:53.255Z,73.80
2022-08-02T12:30:27.753Z,73.80
2022-08-02T12:32:59.158Z,73.90
2022-08-02T12:35:32.063Z,73.90
2022-08-02T12:38:00.186Z,73.90
2022-08-02T12:40:34.895Z,73.90
2022-08-02T12:43:03.645Z,73.90
2022-08-02T12:45:40.056Z,73.90
2022-08-02T12:48:10.916Z,73.80
2022-08-02T12:50:46.267Z,73.90
2022-08-02T12:53:15.237Z,73.90
2022-08-02T12:55:59.391Z,73.80
2022-08-02T12:58:30.921Z,73.80
2022-08-02T13:01:00.169Z,73.80
2022-08-02T13:04:11.736Z,73.90
2022-08-02T13:06:42.937Z,73.80
2022-08-02T13:09:17.016Z,73.90
2022-08-02T13:11:51.319Z,73.90
2022-08-02T13:14:22.596Z,73.90
2022-08-02T13:16:51.579Z,73.90
2022-08-02T13:19:19.779Z,74.00
2022-08-02T13:22:01.497Z,74.00
2022-08-02T13:24:40.054Z,74.00
2022-08-02T13:27:20.896Z,73.90
2022-08-02T13:29:52.752Z,73.90
2022-08-02T13:32:20.840Z,74.00
2022-08-02T13:34:48.983Z,74.00
2022-08-02T13:37:18.578Z,74.00
2022-08-02T13:40:21.226Z,74.00
2022-08-02T13:42:52.444Z,74.00
2022-08-02T13:45:20.617Z,74.00
2022-08-02T13:48:04.482Z,74.00
2022-08-02T13:50:33.119Z,74.00
2022-08-02T13:53:02.693Z,74.10
2022-08-02T13:55:30.803Z,74.10
2022-08-02T13:57:58.917Z,74.10
2022-08-02T14:00:34.231Z,74.10
2022-08-02T14:03:02.688Z,74.10
2022-08-02T14:05:47.898Z,74.10
2022-08-02T14:08:41.482Z,74.10
2022-08-02T14:11:12.459Z,74.10
2022-08-02T14:13:40.641Z,74.10
2022-08-02T14:16:16.295Z,74.10
2022-08-02T14:18:44.424Z,74.20
2022-08-02T14:21:15.290Z,74.10
2022-08-02T14:23:49.429Z,74.20
2022-08-02T14:26:27.670Z,74.20
2022-08-02T14:28:59.151Z,74.20
2022-08-02T14:31:27.229Z,74.20
2022-08-02T14:34:18.174Z,74.20
2022-08-02T14:36:49.343Z,74.20
2022-08-02T14:39:21.239Z,74.20
2022-08-02T14:42:00.037Z,74.20
2022-08-02T14:44:28.872Z,74.20
2022-08-02T14:46:57.359Z,74.30
2022-08-02T14:49:26.992Z,74.20
2022-08-02T14:51:55.427Z,74.20
2022-08-02T14:54:30.491Z,74.30
2022-08-02T14:56:59.940Z,74.30
2022-08-02T14:59:35.313Z,74.30
2022-08-02T15:02:20.689Z,74.30
2022-08-02T15:04:48.830Z,74.30
2022-08-02T15:07:16.936Z,74.30
2022-08-02T15:09:46.386Z,74.30
2022-08-02T15:12:26.111Z,74.30
2022-08-02T15:15:08.068Z,74.30
2022-08-02T15:17:36.158Z,74.40
2022-08-02T15:20:11.301Z,74.40
2022-08-02T15:23:05.749Z,74.40
2022-08-02T15:25:41.604Z,74.40
2022-08-02T15:28:13.235Z,74.40
2022-08-02T15:30:41.294Z,74.40
2022-08-02T15:33:09.362Z,74.40
2022-08-02T15:35:37.425Z,74.40
2022-08-02T15:38:05.555Z,74.40
2022-08-02T15:40:33.826Z,74.40
2022-08-02T15:43:03.348Z,74.50
2022-08-02T15:45:31.513Z,74.50
2022-08-02T15:48:16.439Z,74.50
2022-08-02T15:50:53.087Z,74.50
2022-08-02T15:53:21.457Z,74.50
2022-08-02T15:56:05.730Z,74.60
2022-08-02T15:58:44.749Z,74.50
2022-08-02T16:01:13.010Z,74.50
2022-08-02T16:03:56.072Z,74.50
2022-08-02T16:06:25.310Z,74.50
2022-08-02T16:08:55.663Z,74.40
2022-08-02T16:11:34.193Z,74.40
2022-08-02T16:14:05.374Z,74.50
2022-08-02T16:16:33.971Z,74.50
2022-08-02T16:19:47.400Z,74.50
2022-08-02T16:21:52.703Z,74.50
2022-08-02T16:24:20.906Z,74.50
2022-08-02T16:26:49.011Z,74.50
2022-08-02T16:29:21.561Z,74.50
2022-08-02T16:31:52.625Z,74.50
2022-08-02T16:34:20.693Z,74.50
2022-08-02T16:36:48.758Z,74.50
2022-08-02T16:39:22.770Z,74.50
2022-08-02T16:41:54.087Z,74.50
2022-08-02T16:44:29.237Z,74.50
2022-08-02T16:47:01.477Z,74.50
2022-08-02T16:50:07.292Z,74.50
2022-08-02T16:52:20.941Z,74.50
2022-08-02T16:54:57.835Z,74.50
2022-08-02T16:57:42.991Z,74.50
2022-08-02T17:00:17.776Z,74.50
2022-08-02T17:02:51.920Z,74.50
2022-08-02T17:05:21.150Z,74.50
2022-08-02T17:08:08.661Z,74.40
2022-08-02T17:10:43.193Z,74.40
2022-08-02T17:13:12.145Z,74.40
2022-08-02T17:16:15.814Z,74.40
2022-08-02T17:18:34.447Z,74.40
2022-08-02T17:21:31.399Z,74.40
2022-08-02T17:24:04.854Z,74.40
2022-08-02T17:26:34.656Z,74.30
2022-08-02T17:29:15.228Z,74.40
2022-08-02T17:32:05.426Z,74.30
2022-08-02T17:34:35.704Z,74.40
2022-08-02T17:37:05.832Z,74.30
2022-08-02T17:39:43.103Z,74.30
2022-08-02T17:42:23.086Z,74.30
2022-08-02T17:44:53.098Z,74.30
2022-08-02T17:47:30.756Z,74.30
2022-08-02T17:50:09.731Z,74.30
2022-08-02T17:52:50.521Z,74.30
2022-08-02T17:55:31.465Z,74.20
2022-08-02T17:57:59.801Z,74.20
2022-08-02T18:00:33.682Z,74.20
2022-08-02T18:03:05.809Z,74.20
2022-08-02T18:05:40.239Z,74.20
2022-08-02T18:08:22.983Z,74.20
2022-08-02T18:10:51.553Z,74.20
2022-08-02T18:13:19.632Z,74.20
2022-08-02T18:15:52.601Z,74.20
2022-08-02T18:18:29.567Z,74.20
2022-08-02T18:23:49.357Z,74.20
2022-08-02T18:26:17.932Z,74.20
2022-08-02T18:28:49.035Z,74.10
2022-08-02T18:31:22.379Z,74.10
2022-08-02T18:34:09.868Z,74.10
2022-08-02T18:36:47.187Z,74.10
2022-08-02T18:39:16.065Z,74.10
2022-08-02T18:41:45.191Z,74.10
2022-08-02T18:44:16.431Z,74.10
2022-08-02T18:46:49.298Z,74.10
2022-08-02T18:49:19.027Z,74.10
2022-08-02T18:51:47.789Z,74.10
2022-08-02T18:54:26.699Z,74.10
2022-08-02T18:56:59.487Z,74.10
2022-08-02T18:59:43.083Z,74.00
2022-08-02T19:02:25.330Z,74.00
2022-08-02T19:04:57.546Z,74.00
2022-08-02T19:07:25.790Z,74.00
2022-08-02T19:10:13.884Z,74.00
2022-08-02T19:12:41.975Z,74.00
2022-08-02T19:15:17.089Z,74.00
2022-08-02T19:17:55.510Z,74.00
2022-08-02T19:20:26.650Z,74.00
2022-08-02T19:22:57.333Z,74.00
2022-08-02T19:25:27.617Z,74.00
2022-08-02T19:27:56.085Z,73.90
2022-08-02T19:30:42.233Z,74.00
2022-08-02T19:33:25.097Z,73.90
2022-08-02T19:36:03.832Z,73.90
2022-08-02T19:38:33.165Z,73.90
2022-08-02T19:41:17.629Z,73.90
2022-08-02T19:44:24.878Z,73.90
2022-08-02T19:46:38.322Z,73.90
2022-08-02T19:49:20.286Z,73.90
2022-08-02T19:52:02.273Z,73.90
2022-08-02T19:54:55.689Z,73.90
2022-08-02T19:57:27.188Z,73.80
2022-08-02T19:59:59.726Z,73.80
2022-08-02T20:02:27.853Z,73.80
2022-08-02T20:04:59.363Z,73.80
2022-08-02T20:07:54.741Z,73.80
2022-08-02T20:13:06.235Z,73.80
2022-08-02T20:15:56.600Z,73.80
2022-08-02T20:18:26.863Z,73.80
2022-08-02T20:20:57.008Z,73.80
2022-08-02T20:23:32.102Z,73.80
2022-08-02T20:26:02.444Z,73.70
2022-08-02T20:28:31.978Z,73.70
2022-08-02T20:31:06.996Z,73.70
2022-08-02T20:33:37.115Z,73.70
2022-08-02T20:36:27.371Z,73.70
2022-08-02T20:38:57.013Z,73.70
2022-08-02T20:41:37.251Z,73.70
2022-08-02T20:44:15.396Z,73.70
2022-08-02T20:46:54.223Z,73.70
2022-08-02T20:52:39.361Z,73.70
2022-08-02T20:55:17.089Z,73.70
2022-08-02T20:58:00.613Z,73.70
2022-08-02T21:00:30.313Z,73.70
2022-08-02T21:03:05.828Z,73.70
2022-08-02T21:05:54.038Z,73.70
2022-08-02T21:08:22.609Z,73.70
2022-08-02T21:10:58.950Z,73.70
2022-08-02T21:13:30.295Z,73.70
2022-08-02T21:16:07.818Z,73.70
2022-08-02T21:18:41.443Z,73.70
2022-08-02T21:21:16.303Z,73.70
2022-08-02T21:23:48.283Z,73.70
2022-08-02T21:26:19.794Z,73.70
2022-08-02T21:28:54.604Z,73.70
2022-08-02T21:31:23.020Z,73.70
2022-08-02T21:33:59.415Z,73.70
2022-08-02T21:36:30.946Z,73.70
2022-08-02T21:39:05.130Z,73.70
2022-08-02T21:41:39.800Z,73.70
2022-08-02T21:44:16.581Z,73.70
2022-08-02T21:46:46.661Z,73.70
2022-08-02T21:49:18.408Z,73.80
2022-08-02T21:51:48.906Z,73.70
2022-08-02T21:54:20.234Z,73.80
2022-08-02T21:56:54.006Z,73.80
2022-08-02T21:59:25.977Z,73.80
2022-08-02T22:01:57.939Z,73.80
2022-08-02T22:04:26.841Z,73.80
2022-08-02T22:06:55.345Z,73.80
2022-08-02T22:09:44.685Z,73.80
2022-08-02T22:12:21.943Z,73.80
2022-08-02T22:14:56.633Z,73.80
2022-08-02T22:17:50.508Z,73.80
2022-08-02T22:20:14.601Z,74.00
2022-08-02T22:22:43.711Z,73.80
2022-08-02T22:25:26.982Z,73.90
2022-08-02T22:28:36.358Z,74.00
2022-08-02T22:30:52.762Z,73.90
2022-08-02T22:33:38.801Z,73.90
2022-08-02T22:36:11.544Z,73.90
2022-08-02T22:38:44.602Z,73.90
2022-08-02T22:41:13.428Z,74.00
2022-08-02T22:43:42.936Z,73.90
2022-08-02T22:46:15.383Z,73.90
2022-08-02T22:48:45.325Z,73.90
2022-08-02T22:51:13.791Z,74.00
2022-08-02T22:53:42.063Z,73.90
2022-08-02T22:56:10.594Z,74.10
2022-08-02T22:58:44.028Z,74.20
2022-08-02T22:58:54.798Z,73.80
2022-08-02T23:01:28.218Z,74.30
2022-08-02T23:03:56.409Z,74.10
2022-08-02T23:06:24.490Z,74.20
2022-08-02T23:08:52.586Z,74.10
2022-08-02T23:11:23.517Z,74.10
2022-08-02T23:13:51.651Z,74.20
2022-08-02T23:16:47.301Z,74.20
2022-08-02T23:19:32.971Z,74.30
2022-08-02T23:22:03.041Z,74.30
2022-08-02T23:24:33.662Z,74.40
2022-08-02T23:27:01.965Z,74.40
2022-08-02T23:29:33.211Z,74.50
2022-08-02T23:32:02.643Z,74.50
2022-08-02T23:34:31.323Z,74.60
2022-08-02T23:36:59.456Z,74.60
2022-08-02T23:39:27.631Z,74.60
2022-08-02T23:41:56.072Z,74.70
2022-08-02T23:44:24.607Z,74.70
2022-08-02T23:47:00.658Z,74.70
2022-08-02T23:49:30.275Z,74.60
2022-08-02T23:52:02.141Z,74.50
2022-08-02T23:54:30.380Z,74.20
2022-08-02T23:57:20.548Z,74.20
2022-08-02T23:59:49.775Z,74.30
